sensor_id;sensor_type;location;lat;lon;timestamp;P1;durP1;ratioP1;P2;durP2;ratioP2
65045;SDS011;54657;52.022;5.534;2023-05-10T00:01:38;27.23;;;19.80;;
65045;SDS011;54657;52.022;5.534;2023-05-10T00:04:03;26.55;;;20.55;;
65045;SDS011;54657;52.022;5.534;2023-05-10T00:06:29;25.17;;;18.55;;
65045;SDS011;54657;52.022;5.534;2023-05-10T00:08:55;27.73;;;19.00;;
65045;SDS011;54657;52.022;5.534;2023-05-10T00:11:20;29.58;;;20.55;;
65045;SDS011;54657;52.022;5.534;2023-05-10T00:13:46;32.33;;;21.25;;
65045;SDS011;54657;52.022;5.534;2023-05-10T00:16:12;28.58;;;21.25;;
65045;SDS011;54657;52.022;5.534;2023-05-10T00:18:38;29.60;;;20.85;;
65045;SDS011;54657;52.022;5.534;2023-05-10T00:21:04;30.33;;;20.98;;
65045;SDS011;54657;52.022;5.534;2023-05-10T00:23:29;34.03;;;22.77;;
65045;SDS011;54657;52.022;5.534;2023-05-10T00:25:55;26.30;;;20.45;;
65045;SDS011;54657;52.022;5.534;2023-05-10T00:28:21;31.45;;;21.15;;
65045;SDS011;54657;52.022;5.534;2023-05-10T00:30:46;30.63;;;21.40;;
65045;SDS011;54657;52.022;5.534;2023-05-10T00:33:12;30.38;;;21.88;;
65045;SDS011;54657;52.022;5.534;2023-05-10T00:35:38;29.33;;;21.52;;
65045;SDS011;54657;52.022;5.534;2023-05-10T00:38:03;29.95;;;20.88;;
65045;SDS011;54657;52.022;5.534;2023-05-10T00:40:29;32.33;;;21.33;;
65045;SDS011;54657;52.022;5.534;2023-05-10T00:42:55;32.47;;;21.50;;
65045;SDS011;54657;52.022;5.534;2023-05-10T00:45:22;29.95;;;19.77;;
65045;SDS011;54657;52.022;5.534;2023-05-10T00:47:48;25.80;;;19.35;;
65045;SDS011;54657;52.022;5.534;2023-05-10T00:50:14;29.08;;;20.27;;
65045;SDS011;54657;52.022;5.534;2023-05-10T00:52:40;29.35;;;20.25;;
65045;SDS011;54657;52.022;5.534;2023-05-10T00:55:07;27.67;;;19.70;;
65045;SDS011;54657;52.022;5.534;2023-05-10T00:57:34;29.92;;;21.08;;
65045;SDS011;54657;52.022;5.534;2023-05-10T01:00:00;27.90;;;19.77;;
65045;SDS011;54657;52.022;5.534;2023-05-10T01:02:28;30.70;;;20.38;;
65045;SDS011;54657;52.022;5.534;2023-05-10T01:04:53;27.40;;;19.55;;
65045;SDS011;54657;52.022;5.534;2023-05-10T01:07:19;31.38;;;20.85;;
65045;SDS011;54657;52.022;5.534;2023-05-10T01:09:45;29.13;;;19.80;;
65045;SDS011;54657;52.022;5.534;2023-05-10T01:12:11;28.40;;;19.25;;
65045;SDS011;54657;52.022;5.534;2023-05-10T01:14:36;26.85;;;20.17;;
65045;SDS011;54657;52.022;5.534;2023-05-10T01:17:03;31.50;;;20.70;;
65045;SDS011;54657;52.022;5.534;2023-05-10T01:19:29;27.45;;;19.45;;
65045;SDS011;54657;52.022;5.534;2023-05-10T01:21:59;28.73;;;18.55;;
65045;SDS011;54657;52.022;5.534;2023-05-10T01:24:40;29.08;;;19.55;;
65045;SDS011;54657;52.022;5.534;2023-05-10T01:35:49;28.98;;;18.92;;
65045;SDS011;54657;52.022;5.534;2023-05-10T01:46:36;29.90;;;18.88;;
65045;SDS011;54657;52.022;5.534;2023-05-10T01:49:03;30.15;;;19.35;;
65045;SDS011;54657;52.022;5.534;2023-05-10T01:51:44;32.28;;;20.20;;
65045;SDS011;54657;52.022;5.534;2023-05-10T01:54:13;30.67;;;18.85;;
65045;SDS011;54657;52.022;5.534;2023-05-10T01:56:42;30.35;;;20.45;;
65045;SDS011;54657;52.022;5.534;2023-05-10T01:59:11;33.28;;;20.60;;
65045;SDS011;54657;52.022;5.534;2023-05-10T02:01:40;36.80;;;21.52;;
65045;SDS011;54657;52.022;5.534;2023-05-10T02:04:07;34.03;;;21.20;;
65045;SDS011;54657;52.022;5.534;2023-05-10T02:06:34;40.13;;;23.42;;
65045;SDS011;54657;52.022;5.534;2023-05-10T02:09:01;36.83;;;22.35;;
65045;SDS011;54657;52.022;5.534;2023-05-10T02:11:27;36.40;;;23.15;;
65045;SDS011;54657;52.022;5.534;2023-05-10T02:13:54;34.67;;;22.10;;
65045;SDS011;54657;52.022;5.534;2023-05-10T02:16:21;36.92;;;24.05;;
65045;SDS011;54657;52.022;5.534;2023-05-10T02:18:50;38.35;;;23.30;;
65045;SDS011;54657;52.022;5.534;2023-05-10T02:21:17;35.33;;;22.40;;
65045;SDS011;54657;52.022;5.534;2023-05-10T02:23:45;39.70;;;22.90;;
65045;SDS011;54657;52.022;5.534;2023-05-10T02:26:13;40.05;;;23.73;;
65045;SDS011;54657;52.022;5.534;2023-05-10T02:28:40;34.85;;;22.20;;
65045;SDS011;54657;52.022;5.534;2023-05-10T02:31:07;39.58;;;23.85;;
65045;SDS011;54657;52.022;5.534;2023-05-10T02:33:35;36.83;;;23.58;;
65045;SDS011;54657;52.022;5.534;2023-05-10T02:36:05;38.13;;;23.02;;
65045;SDS011;54657;52.022;5.534;2023-05-10T02:38:34;38.45;;;23.90;;
65045;SDS011;54657;52.022;5.534;2023-05-10T02:41:01;38.28;;;23.02;;
65045;SDS011;54657;52.022;5.534;2023-05-10T02:43:30;41.15;;;24.58;;
65045;SDS011;54657;52.022;5.534;2023-05-10T02:45:57;36.90;;;23.17;;
65045;SDS011;54657;52.022;5.534;2023-05-10T02:48:23;38.72;;;23.80;;
65045;SDS011;54657;52.022;5.534;2023-05-10T02:50:49;34.97;;;22.50;;
65045;SDS011;54657;52.022;5.534;2023-05-10T02:53:24;37.15;;;24.20;;
65045;SDS011;54657;52.022;5.534;2023-05-10T02:55:58;36.95;;;24.13;;
65045;SDS011;54657;52.022;5.534;2023-05-10T02:58:29;37.35;;;23.73;;
65045;SDS011;54657;52.022;5.534;2023-05-10T03:00:54;39.03;;;23.67;;
65045;SDS011;54657;52.022;5.534;2023-05-10T03:03:20;36.15;;;23.65;;
65045;SDS011;54657;52.022;5.534;2023-05-10T03:05:46;40.08;;;23.65;;
65045;SDS011;54657;52.022;5.534;2023-05-10T03:08:11;40.08;;;24.63;;
65045;SDS011;54657;52.022;5.534;2023-05-10T03:10:39;39.65;;;24.00;;
65045;SDS011;54657;52.022;5.534;2023-05-10T03:13:15;37.30;;;23.38;;
65045;SDS011;54657;52.022;5.534;2023-05-10T03:15:53;37.35;;;22.60;;
65045;SDS011;54657;52.022;5.534;2023-05-10T03:18:42;39.53;;;25.27;;
65045;SDS011;54657;52.022;5.534;2023-05-10T03:21:28;38.05;;;24.30;;
65045;SDS011;54657;52.022;5.534;2023-05-10T03:26:24;38.30;;;24.13;;
65045;SDS011;54657;52.022;5.534;2023-05-10T03:28:52;38.08;;;23.90;;
65045;SDS011;54657;52.022;5.534;2023-05-10T03:31:19;41.25;;;26.48;;
65045;SDS011;54657;52.022;5.534;2023-05-10T03:33:46;45.70;;;25.88;;
65045;SDS011;54657;52.022;5.534;2023-05-10T03:36:15;43.72;;;25.80;;
65045;SDS011;54657;52.022;5.534;2023-05-10T03:38:41;39.88;;;24.25;;
65045;SDS011;54657;52.022;5.534;2023-05-10T03:41:07;45.00;;;25.75;;
65045;SDS011;54657;52.022;5.534;2023-05-10T03:43:32;48.50;;;25.77;;
65045;SDS011;54657;52.022;5.534;2023-05-10T03:45:58;45.38;;;26.05;;
65045;SDS011;54657;52.022;5.534;2023-05-10T03:48:23;39.92;;;24.05;;
65045;SDS011;54657;52.022;5.534;2023-05-10T03:50:49;39.47;;;25.08;;
65045;SDS011;54657;52.022;5.534;2023-05-10T03:53:15;40.60;;;25.90;;
65045;SDS011;54657;52.022;5.534;2023-05-10T03:55:40;38.90;;;23.75;;
65045;SDS011;54657;52.022;5.534;2023-05-10T03:58:06;44.80;;;26.58;;
65045;SDS011;54657;52.022;5.534;2023-05-10T04:00:35;39.00;;;23.45;;
65045;SDS011;54657;52.022;5.534;2023-05-10T04:03:00;42.08;;;24.98;;
65045;SDS011;54657;52.022;5.534;2023-05-10T04:05:26;47.45;;;26.30;;
65045;SDS011;54657;52.022;5.534;2023-05-10T04:07:51;41.00;;;23.50;;
65045;SDS011;54657;52.022;5.534;2023-05-10T04:10:17;38.97;;;23.13;;
65045;SDS011;54657;52.022;5.534;2023-05-10T04:12:43;38.28;;;23.30;;
65045;SDS011;54657;52.022;5.534;2023-05-10T04:15:08;41.70;;;25.00;;
65045;SDS011;54657;52.022;5.534;2023-05-10T04:17:34;37.47;;;22.27;;
65045;SDS011;54657;52.022;5.534;2023-05-10T04:20:00;39.63;;;23.15;;
65045;SDS011;54657;52.022;5.534;2023-05-10T04:22:25;33.95;;;20.60;;
65045;SDS011;54657;52.022;5.534;2023-05-10T04:24:52;35.55;;;20.77;;
65045;SDS011;54657;52.022;5.534;2023-05-10T04:27:18;37.00;;;20.40;;
65045;SDS011;54657;52.022;5.534;2023-05-10T04:29:43;33.42;;;18.98;;
65045;SDS011;54657;52.022;5.534;2023-05-10T04:32:09;37.42;;;19.35;;
65045;SDS011;54657;52.022;5.534;2023-05-10T04:34:35;33.47;;;18.55;;
65045;SDS011;54657;52.022;5.534;2023-05-10T04:37:01;34.08;;;20.63;;
65045;SDS011;54657;52.022;5.534;2023-05-10T04:39:26;35.72;;;20.30;;
65045;SDS011;54657;52.022;5.534;2023-05-10T04:41:52;36.75;;;20.33;;
65045;SDS011;54657;52.022;5.534;2023-05-10T04:44:17;38.20;;;21.30;;
65045;SDS011;54657;52.022;5.534;2023-05-10T04:46:43;38.55;;;20.80;;
65045;SDS011;54657;52.022;5.534;2023-05-10T04:49:08;38.28;;;19.60;;
65045;SDS011;54657;52.022;5.534;2023-05-10T04:51:34;33.08;;;19.10;;
65045;SDS011;54657;52.022;5.534;2023-05-10T04:53:59;37.55;;;20.75;;
65045;SDS011;54657;52.022;5.534;2023-05-10T04:56:25;40.15;;;22.30;;
65045;SDS011;54657;52.022;5.534;2023-05-10T04:58:51;43.90;;;21.40;;
65045;SDS011;54657;52.022;5.534;2023-05-10T05:01:16;41.55;;;20.08;;
65045;SDS011;54657;52.022;5.534;2023-05-10T05:03:42;42.95;;;22.60;;
65045;SDS011;54657;52.022;5.534;2023-05-10T05:06:07;44.28;;;22.05;;
65045;SDS011;54657;52.022;5.534;2023-05-10T05:08:33;47.90;;;23.88;;
65045;SDS011;54657;52.022;5.534;2023-05-10T05:10:58;44.08;;;24.10;;
65045;SDS011;54657;52.022;5.534;2023-05-10T05:13:24;37.63;;;21.23;;
65045;SDS011;54657;52.022;5.534;2023-05-10T05:15:50;50.80;;;22.67;;
65045;SDS011;54657;52.022;5.534;2023-05-10T05:18:15;45.65;;;23.60;;
65045;SDS011;54657;52.022;5.534;2023-05-10T05:20:41;50.40;;;23.33;;
65045;SDS011;54657;52.022;5.534;2023-05-10T05:23:06;41.25;;;22.35;;
65045;SDS011;54657;52.022;5.534;2023-05-10T05:25:32;42.60;;;22.33;;
65045;SDS011;54657;52.022;5.534;2023-05-10T05:27:57;44.20;;;24.02;;
65045;SDS011;54657;52.022;5.534;2023-05-10T05:30:23;40.83;;;21.95;;
65045;SDS011;54657;52.022;5.534;2023-05-10T05:32:48;43.00;;;23.55;;
65045;SDS011;54657;52.022;5.534;2023-05-10T05:35:14;50.28;;;23.20;;
65045;SDS011;54657;52.022;5.534;2023-05-10T05:37:39;43.50;;;23.25;;
65045;SDS011;54657;52.022;5.534;2023-05-10T05:40:05;38.30;;;21.85;;
65045;SDS011;54657;52.022;5.534;2023-05-10T05:42:31;37.85;;;22.02;;
65045;SDS011;54657;52.022;5.534;2023-05-10T05:44:57;40.65;;;22.73;;
65045;SDS011;54657;52.022;5.534;2023-05-10T05:47:22;43.90;;;22.67;;
65045;SDS011;54657;52.022;5.534;2023-05-10T05:49:48;40.63;;;23.58;;
65045;SDS011;54657;52.022;5.534;2023-05-10T05:52:13;43.47;;;22.75;;
65045;SDS011;54657;52.022;5.534;2023-05-10T05:54:39;43.03;;;24.38;;
65045;SDS011;54657;52.022;5.534;2023-05-10T05:57:04;45.13;;;23.83;;
65045;SDS011;54657;52.022;5.534;2023-05-10T05:59:30;46.40;;;24.88;;
65045;SDS011;54657;52.022;5.534;2023-05-10T06:01:56;51.97;;;25.23;;
65045;SDS011;54657;52.022;5.534;2023-05-10T06:04:21;48.10;;;23.85;;
65045;SDS011;54657;52.022;5.534;2023-05-10T06:06:47;44.75;;;22.25;;
65045;SDS011;54657;52.022;5.534;2023-05-10T06:09:12;43.25;;;23.48;;
65045;SDS011;54657;52.022;5.534;2023-05-10T06:11:38;42.22;;;22.58;;
65045;SDS011;54657;52.022;5.534;2023-05-10T06:14:04;37.33;;;21.70;;
65045;SDS011;54657;52.022;5.534;2023-05-10T06:16:32;44.35;;;22.73;;
65045;SDS011;54657;52.022;5.534;2023-05-10T06:18:57;38.95;;;21.90;;
65045;SDS011;54657;52.022;5.534;2023-05-10T06:21:23;37.03;;;21.25;;
65045;SDS011;54657;52.022;5.534;2023-05-10T06:23:48;37.13;;;21.85;;
65045;SDS011;54657;52.022;5.534;2023-05-10T06:26:14;43.67;;;23.15;;
65045;SDS011;54657;52.022;5.534;2023-05-10T06:28:39;41.63;;;23.42;;
65045;SDS011;54657;52.022;5.534;2023-05-10T06:31:05;49.45;;;24.80;;
65045;SDS011;54657;52.022;5.534;2023-05-10T06:33:31;41.33;;;22.15;;
65045;SDS011;54657;52.022;5.534;2023-05-10T06:35:58;38.50;;;22.15;;
65045;SDS011;54657;52.022;5.534;2023-05-10T06:38:23;35.90;;;21.88;;
65045;SDS011;54657;52.022;5.534;2023-05-10T06:40:49;39.13;;;23.52;;
65045;SDS011;54657;52.022;5.534;2023-05-10T06:43:16;41.58;;;22.73;;
65045;SDS011;54657;52.022;5.534;2023-05-10T06:45:41;38.15;;;21.77;;
65045;SDS011;54657;52.022;5.534;2023-05-10T06:48:07;44.17;;;24.48;;
65045;SDS011;54657;52.022;5.534;2023-05-10T06:50:33;41.28;;;23.48;;
65045;SDS011;54657;52.022;5.534;2023-05-10T06:52:58;44.72;;;23.10;;
65045;SDS011;54657;52.022;5.534;2023-05-10T06:55:25;44.53;;;24.60;;
65045;SDS011;54657;52.022;5.534;2023-05-10T06:57:51;47.63;;;24.92;;
65045;SDS011;54657;52.022;5.534;2023-05-10T07:00:17;39.00;;;22.63;;
65045;SDS011;54657;52.022;5.534;2023-05-10T07:02:43;40.33;;;23.70;;
65045;SDS011;54657;52.022;5.534;2023-05-10T07:05:09;41.55;;;21.50;;
65045;SDS011;54657;52.022;5.534;2023-05-10T07:07:34;39.88;;;23.02;;
65045;SDS011;54657;52.022;5.534;2023-05-10T07:10:00;44.40;;;24.30;;
65045;SDS011;54657;52.022;5.534;2023-05-10T07:12:26;39.72;;;22.83;;
65045;SDS011;54657;52.022;5.534;2023-05-10T07:14:52;38.30;;;21.05;;
65045;SDS011;54657;52.022;5.534;2023-05-10T07:17:18;33.65;;;20.35;;
65045;SDS011;54657;52.022;5.534;2023-05-10T07:19:43;35.92;;;21.35;;
65045;SDS011;54657;52.022;5.534;2023-05-10T07:22:09;37.95;;;21.55;;
65045;SDS011;54657;52.022;5.534;2023-05-10T07:24:35;32.97;;;20.05;;
65045;SDS011;54657;52.022;5.534;2023-05-10T07:27:00;28.80;;;18.00;;
65045;SDS011;54657;52.022;5.534;2023-05-10T07:29:26;29.13;;;17.33;;
65045;SDS011;54657;52.022;5.534;2023-05-10T07:31:51;25.88;;;17.25;;
65045;SDS011;54657;52.022;5.534;2023-05-10T07:34:18;32.13;;;17.95;;
65045;SDS011;54657;52.022;5.534;2023-05-10T07:36:43;24.52;;;15.95;;
65045;SDS011;54657;52.022;5.534;2023-05-10T07:39:09;24.45;;;15.23;;
65045;SDS011;54657;52.022;5.534;2023-05-10T07:41:34;25.45;;;15.77;;
65045;SDS011;54657;52.022;5.534;2023-05-10T07:44:02;22.85;;;15.25;;
65045;SDS011;54657;52.022;5.534;2023-05-10T07:46:28;21.75;;;14.30;;
65045;SDS011;54657;52.022;5.534;2023-05-10T07:48:54;19.35;;;12.20;;
65045;SDS011;54657;52.022;5.534;2023-05-10T07:51:19;18.30;;;11.82;;
65045;SDS011;54657;52.022;5.534;2023-05-10T07:53:45;16.20;;;10.60;;
65045;SDS011;54657;52.022;5.534;2023-05-10T07:58:51;15.93;;;9.98;;
65045;SDS011;54657;52.022;5.534;2023-05-10T08:01:16;14.60;;;9.43;;
65045;SDS011;54657;52.022;5.534;2023-05-10T08:03:42;11.88;;;8.23;;
65045;SDS011;54657;52.022;5.534;2023-05-10T08:06:08;12.32;;;7.57;;
65045;SDS011;54657;52.022;5.534;2023-05-10T08:08:33;11.07;;;7.50;;
65045;SDS011;54657;52.022;5.534;2023-05-10T08:10:59;11.07;;;7.25;;
65045;SDS011;54657;52.022;5.534;2023-05-10T08:13:25;11.65;;;7.00;;
65045;SDS011;54657;52.022;5.534;2023-05-10T08:15:50;10.77;;;7.47;;
65045;SDS011;54657;52.022;5.534;2023-05-10T08:18:18;11.63;;;7.35;;
65045;SDS011;54657;52.022;5.534;2023-05-10T08:20:43;10.40;;;7.50;;
65045;SDS011;54657;52.022;5.534;2023-05-10T08:23:09;13.20;;;8.05;;
65045;SDS011;54657;52.022;5.534;2023-05-10T08:25:35;11.00;;;7.85;;
65045;SDS011;54657;52.022;5.534;2023-05-10T08:28:00;12.25;;;8.05;;
65045;SDS011;54657;52.022;5.534;2023-05-10T08:30:26;11.65;;;7.97;;
65045;SDS011;54657;52.022;5.534;2023-05-10T08:32:51;14.77;;;8.73;;
65045;SDS011;54657;52.022;5.534;2023-05-10T08:35:17;11.80;;;7.93;;
65045;SDS011;54657;52.022;5.534;2023-05-10T08:37:42;11.20;;;8.50;;
65045;SDS011;54657;52.022;5.534;2023-05-10T08:40:08;11.32;;;8.60;;
65045;SDS011;54657;52.022;5.534;2023-05-10T08:42:36;10.15;;;8.02;;
65045;SDS011;54657;52.022;5.534;2023-05-10T08:45:06;12.20;;;7.88;;
65045;SDS011;54657;52.022;5.534;2023-05-10T08:47:32;10.70;;;8.13;;
65045;SDS011;54657;52.022;5.534;2023-05-10T08:49:59;12.82;;;8.60;;
65045;SDS011;54657;52.022;5.534;2023-05-10T08:52:27;13.73;;;8.68;;
65045;SDS011;54657;52.022;5.534;2023-05-10T08:54:55;10.65;;;7.97;;
65045;SDS011;54657;52.022;5.534;2023-05-10T08:57:21;10.77;;;7.72;;
65045;SDS011;54657;52.022;5.534;2023-05-10T08:59:46;10.57;;;7.75;;
65045;SDS011;54657;52.022;5.534;2023-05-10T09:02:12;14.77;;;8.38;;
65045;SDS011;54657;52.022;5.534;2023-05-10T09:04:38;9.75;;;6.93;;
65045;SDS011;54657;52.022;5.534;2023-05-10T09:07:04;10.27;;;6.88;;
65045;SDS011;54657;52.022;5.534;2023-05-10T09:09:31;9.88;;;6.57;;
65045;SDS011;54657;52.022;5.534;2023-05-10T09:11:57;8.10;;;6.55;;
65045;SDS011;54657;52.022;5.534;2023-05-10T09:14:23;10.30;;;6.70;;
65045;SDS011;54657;52.022;5.534;2023-05-10T09:16:49;8.57;;;6.50;;
65045;SDS011;54657;52.022;5.534;2023-05-10T09:19:15;10.57;;;7.10;;
65045;SDS011;54657;52.022;5.534;2023-05-10T09:21:41;9.90;;;6.78;;
65045;SDS011;54657;52.022;5.534;2023-05-10T09:24:07;7.97;;;6.45;;
65045;SDS011;54657;52.022;5.534;2023-05-10T09:26:33;9.30;;;7.00;;
65045;SDS011;54657;52.022;5.534;2023-05-10T09:29:00;9.27;;;6.68;;
65045;SDS011;54657;52.022;5.534;2023-05-10T09:34:17;8.70;;;6.47;;
65045;SDS011;54657;52.022;5.534;2023-05-10T09:36:50;9.35;;;7.15;;
65045;SDS011;54657;52.022;5.534;2023-05-10T09:39:21;10.50;;;6.75;;
65045;SDS011;54657;52.022;5.534;2023-05-10T09:41:55;9.93;;;6.63;;
65045;SDS011;54657;52.022;5.534;2023-05-10T09:44:21;9.48;;;6.68;;
65045;SDS011;54657;52.022;5.534;2023-05-10T09:46:50;9.25;;;6.47;;
65045;SDS011;54657;52.022;5.534;2023-05-10T09:49:17;10.27;;;6.78;;
65045;SDS011;54657;52.022;5.534;2023-05-10T09:51:44;9.70;;;7.32;;
65045;SDS011;54657;52.022;5.534;2023-05-10T09:54:13;8.32;;;6.45;;
65045;SDS011;54657;52.022;5.534;2023-05-10T09:56:41;10.23;;;6.85;;
65045;SDS011;54657;52.022;5.534;2023-05-10T09:59:11;9.68;;;6.82;;
65045;SDS011;54657;52.022;5.534;2023-05-10T10:01:37;10.93;;;6.22;;
65045;SDS011;54657;52.022;5.534;2023-05-10T10:04:06;7.15;;;5.85;;
65045;SDS011;54657;52.022;5.534;2023-05-10T10:06:39;10.82;;;7.03;;
65045;SDS011;54657;52.022;5.534;2023-05-10T10:09:05;8.77;;;6.45;;
65045;SDS011;54657;52.022;5.534;2023-05-10T10:11:34;9.43;;;6.15;;
65045;SDS011;54657;52.022;5.534;2023-05-10T10:14:01;8.40;;;5.82;;
65045;SDS011;54657;52.022;5.534;2023-05-10T10:16:29;7.60;;;6.05;;
65045;SDS011;54657;52.022;5.534;2023-05-10T10:18:55;9.70;;;5.53;;
65045;SDS011;54657;52.022;5.534;2023-05-10T10:21:21;7.85;;;5.45;;
65045;SDS011;54657;52.022;5.534;2023-05-10T10:23:47;9.70;;;5.68;;
65045;SDS011;54657;52.022;5.534;2023-05-10T10:26:13;7.45;;;6.00;;
65045;SDS011;54657;52.022;5.534;2023-05-10T10:31:39;8.57;;;5.97;;
65045;SDS011;54657;52.022;5.534;2023-05-10T10:34:10;7.60;;;6.00;;
65045;SDS011;54657;52.022;5.534;2023-05-10T10:39:19;6.78;;;5.70;;
65045;SDS011;54657;52.022;5.534;2023-05-10T10:41:53;9.10;;;5.78;;
65045;SDS011;54657;52.022;5.534;2023-05-10T10:49:52;9.38;;;6.20;;
65045;SDS011;54657;52.022;5.534;2023-05-10T10:52:28;8.43;;;5.90;;
65045;SDS011;54657;52.022;5.534;2023-05-10T10:55:10;8.05;;;5.75;;
65045;SDS011;54657;52.022;5.534;2023-05-10T11:02:46;8.00;;;5.82;;
65045;SDS011;54657;52.022;5.534;2023-05-10T11:05:33;7.15;;;6.03;;
65045;SDS011;54657;52.022;5.534;2023-05-10T11:08:02;6.65;;;5.72;;
65045;SDS011;54657;52.022;5.534;2023-05-10T11:10:33;8.98;;;5.22;;
65045;SDS011;54657;52.022;5.534;2023-05-10T11:13:03;8.40;;;5.47;;
65045;SDS011;54657;52.022;5.534;2023-05-10T11:15:33;5.65;;;4.82;;
65045;SDS011;54657;52.022;5.534;2023-05-10T11:18:00;7.28;;;4.75;;
65045;SDS011;54657;52.022;5.534;2023-05-10T11:20:42;6.72;;;5.35;;
65045;SDS011;54657;52.022;5.534;2023-05-10T11:23:11;6.97;;;4.95;;
65045;SDS011;54657;52.022;5.534;2023-05-10T11:25:41;6.63;;;5.45;;
65045;SDS011;54657;52.022;5.534;2023-05-10T11:28:08;7.38;;;4.72;;
65045;SDS011;54657;52.022;5.534;2023-05-10T11:30:35;9.48;;;5.53;;
65045;SDS011;54657;52.022;5.534;2023-05-10T11:33:01;7.35;;;5.38;;
65045;SDS011;54657;52.022;5.534;2023-05-10T11:35:27;7.32;;;5.93;;
65045;SDS011;54657;52.022;5.534;2023-05-10T11:37:52;8.32;;;6.25;;
65045;SDS011;54657;52.022;5.534;2023-05-10T11:40:18;11.18;;;5.47;;
65045;SDS011;54657;52.022;5.534;2023-05-10T11:42:46;7.25;;;5.60;;
65045;SDS011;54657;52.022;5.534;2023-05-10T11:45:11;8.73;;;5.47;;
65045;SDS011;54657;52.022;5.534;2023-05-10T11:47:37;6.65;;;5.22;;
65045;SDS011;54657;52.022;5.534;2023-05-10T11:50:04;9.07;;;5.60;;
65045;SDS011;54657;52.022;5.534;2023-05-10T11:52:35;8.77;;;5.10;;
65045;SDS011;54657;52.022;5.534;2023-05-10T11:55:02;7.13;;;5.43;;
65045;SDS011;54657;52.022;5.534;2023-05-10T11:57:27;9.38;;;5.40;;
65045;SDS011;54657;52.022;5.534;2023-05-10T11:59:53;5.63;;;4.13;;
65045;SDS011;54657;52.022;5.534;2023-05-10T12:02:21;5.40;;;4.60;;
65045;SDS011;54657;52.022;5.534;2023-05-10T12:04:46;5.22;;;4.50;;
65045;SDS011;54657;52.022;5.534;2023-05-10T12:07:12;6.28;;;4.43;;
65045;SDS011;54657;52.022;5.534;2023-05-10T12:09:42;5.82;;;4.43;;
65045;SDS011;54657;52.022;5.534;2023-05-10T12:12:09;6.57;;;4.90;;
65045;SDS011;54657;52.022;5.534;2023-05-10T12:14:35;7.35;;;4.45;;
65045;SDS011;54657;52.022;5.534;2023-05-10T12:17:02;5.32;;;4.22;;
65045;SDS011;54657;52.022;5.534;2023-05-10T12:19:27;5.97;;;4.32;;
65045;SDS011;54657;52.022;5.534;2023-05-10T12:21:53;5.38;;;3.97;;
65045;SDS011;54657;52.022;5.534;2023-05-10T12:24:18;5.38;;;4.30;;
65045;SDS011;54657;52.022;5.534;2023-05-10T12:26:46;5.25;;;4.28;;
65045;SDS011;54657;52.022;5.534;2023-05-10T12:29:13;5.97;;;4.40;;
65045;SDS011;54657;52.022;5.534;2023-05-10T12:34:23;4.13;;;3.72;;
65045;SDS011;54657;52.022;5.534;2023-05-10T12:36:55;4.00;;;3.47;;
65045;SDS011;54657;52.022;5.534;2023-05-10T12:39:20;5.03;;;3.72;;
65045;SDS011;54657;52.022;5.534;2023-05-10T12:41:46;3.85;;;2.90;;
65045;SDS011;54657;52.022;5.534;2023-05-10T12:44:11;3.20;;;2.88;;
65045;SDS011;54657;52.022;5.534;2023-05-10T12:46:37;3.67;;;3.05;;
65045;SDS011;54657;52.022;5.534;2023-05-10T12:49:03;3.75;;;2.78;;
65045;SDS011;54657;52.022;5.534;2023-05-10T12:51:28;3.45;;;2.70;;
65045;SDS011;54657;52.022;5.534;2023-05-10T12:53:54;4.07;;;2.50;;
65045;SDS011;54657;52.022;5.534;2023-05-10T12:56:20;4.68;;;2.65;;
65045;SDS011;54657;52.022;5.534;2023-05-10T12:58:46;4.47;;;2.60;;
65045;SDS011;54657;52.022;5.534;2023-05-10T13:01:13;2.80;;;2.50;;
65045;SDS011;54657;52.022;5.534;2023-05-10T13:03:39;3.63;;;3.13;;
65045;SDS011;54657;52.022;5.534;2023-05-10T13:06:04;6.40;;;5.80;;
65045;SDS011;54657;52.022;5.534;2023-05-10T13:08:31;7.28;;;6.30;;
65045;SDS011;54657;52.022;5.534;2023-05-10T13:10:58;8.60;;;7.22;;
65045;SDS011;54657;52.022;5.534;2023-05-10T13:13:25;7.70;;;6.90;;
65045;SDS011;54657;52.022;5.534;2023-05-10T13:15:51;8.95;;;8.05;;
65045;SDS011;54657;52.022;5.534;2023-05-10T13:18:16;5.35;;;4.85;;
65045;SDS011;54657;52.022;5.534;2023-05-10T13:20:42;6.00;;;4.22;;
65045;SDS011;54657;52.022;5.534;2023-05-10T13:23:09;5.28;;;3.88;;
65045;SDS011;54657;52.022;5.534;2023-05-10T13:25:35;6.28;;;4.15;;
65045;SDS011;54657;52.022;5.534;2023-05-10T13:28:00;5.28;;;4.18;;
65045;SDS011;54657;52.022;5.534;2023-05-10T13:30:26;4.32;;;3.92;;
65045;SDS011;54657;52.022;5.534;2023-05-10T13:32:52;6.20;;;3.85;;
65045;SDS011;54657;52.022;5.534;2023-05-10T13:35:17;4.55;;;3.65;;
65045;SDS011;54657;52.022;5.534;2023-05-10T13:37:43;4.07;;;3.75;;
65045;SDS011;54657;52.022;5.534;2023-05-10T13:40:08;5.85;;;4.25;;
65045;SDS011;54657;52.022;5.534;2023-05-10T13:42:35;4.13;;;3.78;;
65045;SDS011;54657;52.022;5.534;2023-05-10T13:45:00;6.85;;;3.70;;
65045;SDS011;54657;52.022;5.534;2023-05-10T13:47:26;4.10;;;3.70;;
65045;SDS011;54657;52.022;5.534;2023-05-10T13:49:52;4.90;;;3.60;;
65045;SDS011;54657;52.022;5.534;2023-05-10T13:52:18;5.55;;;4.00;;
65045;SDS011;54657;52.022;5.534;2023-05-10T13:54:44;4.25;;;3.85;;
65045;SDS011;54657;52.022;5.534;2023-05-10T13:57:09;5.07;;;4.20;;
65045;SDS011;54657;52.022;5.534;2023-05-10T13:59:37;5.63;;;4.13;;
65045;SDS011;54657;52.022;5.534;2023-05-10T14:02:03;5.68;;;3.97;;
65045;SDS011;54657;52.022;5.534;2023-05-10T14:04:28;4.70;;;4.20;;
65045;SDS011;54657;52.022;5.534;2023-05-10T14:06:54;4.93;;;3.65;;
65045;SDS011;54657;52.022;5.534;2023-05-10T14:09:20;4.10;;;3.70;;
65045;SDS011;54657;52.022;5.534;2023-05-10T14:11:45;5.88;;;4.20;;
65045;SDS011;54657;52.022;5.534;2023-05-10T14:14:11;4.10;;;3.55;;
65045;SDS011;54657;52.022;5.534;2023-05-10T14:16:38;5.30;;;3.78;;
65045;SDS011;54657;52.022;5.534;2023-05-10T14:19:06;4.50;;;3.25;;
65045;SDS011;54657;52.022;5.534;2023-05-10T14:21:32;4.30;;;3.40;;
65045;SDS011;54657;52.022;5.534;2023-05-10T14:23:58;3.72;;;3.33;;
65045;SDS011;54657;52.022;5.534;2023-05-10T14:26:25;3.67;;;3.20;;
65045;SDS011;54657;52.022;5.534;2023-05-10T14:28:51;3.90;;;3.17;;
65045;SDS011;54657;52.022;5.534;2023-05-10T14:31:16;7.72;;;3.55;;
65045;SDS011;54657;52.022;5.534;2023-05-10T14:33:44;4.75;;;3.50;;
65045;SDS011;54657;52.022;5.534;2023-05-10T14:36:10;5.45;;;3.70;;
65045;SDS011;54657;52.022;5.534;2023-05-10T14:38:35;5.57;;;3.92;;
65045;SDS011;54657;52.022;5.534;2023-05-10T14:41:01;6.20;;;4.18;;
65045;SDS011;54657;52.022;5.534;2023-05-10T14:43:26;5.65;;;4.13;;
65045;SDS011;54657;52.022;5.534;2023-05-10T14:45:53;5.80;;;4.50;;
65045;SDS011;54657;52.022;5.534;2023-05-10T14:48:18;6.72;;;4.78;;
65045;SDS011;54657;52.022;5.534;2023-05-10T14:50:46;7.03;;;4.63;;
65045;SDS011;54657;52.022;5.534;2023-05-10T14:53:11;6.72;;;4.93;;
65045;SDS011;54657;52.022;5.534;2023-05-10T14:55:37;7.00;;;4.78;;
65045;SDS011;54657;52.022;5.534;2023-05-10T14:58:03;6.15;;;5.03;;
65045;SDS011;54657;52.022;5.534;2023-05-10T15:00:29;8.25;;;5.68;;
65045;SDS011;54657;52.022;5.534;2023-05-10T15:02:55;6.57;;;5.15;;
65045;SDS011;54657;52.022;5.534;2023-05-10T15:05:21;7.50;;;5.78;;
65045;SDS011;54657;52.022;5.534;2023-05-10T15:07:47;8.35;;;5.43;;
65045;SDS011;54657;52.022;5.534;2023-05-10T15:10:12;7.60;;;5.10;;
65045;SDS011;54657;52.022;5.534;2023-05-10T15:12:38;8.85;;;6.13;;
65045;SDS011;54657;52.022;5.534;2023-05-10T15:15:04;8.18;;;5.57;;